Date,TemperatureHighF,TemperatureAvgF,TemperatureLowF,DewpointHighF,DewpointAvgF,DewpointLowF,HumidityHigh,HumidityAvg,HumidityLow,PressureMaxIn,PressureMinIn,WindSpeedMaxMPH,WindSpeedAvgMPH,GustSpeedMaxMPH,PrecipitationSumIn
2013-2-1,42,40,38,42,38,36,99,91,83,29.51,29.44,1,0,4,0.20
2013-2-3,50,48,47,48,46,45,95,94,92,29.97,29.94,2,1,8,0.00
2013-2-4,51,51,50,39,39,38,64,63,63,29.95,29.95,4,4,13,0.00
2013-2-5,42,41,40,29,27,25,62,56,50,29.45,29.39,3,3,14,0.08
2013-2-7,40,40,40,31,31,31,70,70,70,30.10,30.10,1,1,4,0.01
2013-2-8,44,44,44,35,35,35,71,71,71,30.10,30.10,2,2,9,0.00
2013-2-9,36,36,36,35,35,35,98,98,98,30.10,30.10,0,0,3,0.00
2013-2-10,38,38,38,38,38,38,99,99,99,29.27,29.23,2,2,11,0.40
2013-2-12,36,36,36,30,30,30,79,79,78,29.98,29.98,0,0,3,0.00
2013-2-13,36,35,34,35,31,27,98,85,69,30.16,30.02,4,4,13,0.06
2013-2-14,53,53,52,44,44,44,73,72,72,29.82,29.82,3,2,11,0.19
2013-2-15,44,44,44,34,34,34,69,69,67,30.14,30.14,0,0,0,0.00
2013-2-17,48,47,47,29,28,28,47,47,47,29.69,29.68,3,2,10,0.00
2013-2-18,50,49,48,38,37,37,68,63,61,30.10,30.09,2,1,8,0.00
2013-2-19,41,41,41,36,36,36,83,83,83,30.10,30.10,1,1,2,0.00
2013-2-20,40,40,40,40,39,39,99,98,97,30.18,30.17,2,2,11,0.00
2013-2-21,36,35,33,23,20,18,61,56,53,30.23,30.15,3,2,14,0.04
2013-2-22,36,33,33,22,20,19,63,59,50,29.92,29.90,1,1,9,0.01
2013-2-23,35,35,35,26,26,26,70,70,70,29.94,29.94,1,1,3,0.00
2013-2-24,36,35,35,27,27,26,73,71,70,30.06,30.05,1,1,7,0.00
2013-2-25,38,38,38,35,35,35,90,90,90,30.16,30.15,1,1,4,0.00
2013-2-26,41,40,40,40,40,39,95,95,95,30.30,30.30,1,1,6,0.00
2013-2-27,39,38,38,34,34,33,84,83,81,30.27,30.27,0,0,5,0.00
2013-2-28,41,41,40,34,34,34,79,77,76,30.21,30.20,1,1,4,0.00